Time;durP1;ratioP1;P1;durP2;ratioP2;P2;SDS_P1;SDS_P2;PMS_P1;PMS_P2;Temp;Humidity;BMP_temperature;BMP_pressure;BME280_temperature;BME280_humidity;BME280_pressure;Samples;Min_cycle;Max_cycle;Signal;HPM_P1;HPM_P2
2023/06/08 00:00:05;;;;;;;8.68;4.47;;;;;;;;;;5015481;28;20033;-69
2023/06/08 00:02:31;;;;;;;6.90;3.92;;;;;;;;;;5015845;28;20024;-69
2023/06/08 00:05:02;;;;;;;6.40;4.32;;;;;;;;;;5015746;28;20026;-69
2023/06/08 00:07:29;;;;;;;8.85;3.92;;;;;;;;;;5015440;28;20010;-69
2023/06/08 00:09:56;;;;;;;6.45;3.78;;;;;;;;;;5015175;28;20022;-69
2023/06/08 00:12:24;;;;;;;6.78;3.65;;;;;;;;;;4997376;28;20018;-69
2023/06/08 00:14:50;;;;;;;6.15;3.95;;;;;;;;;;5015370;28;20470;-69
2023/06/08 00:17:17;;;;;;;4.75;3.85;;;;;;;;;;5015174;28;20061;-69
2023/06/08 00:19:43;;;;;;;6.80;3.80;;;;;;;;;;5015249;28;20498;-69
2023/06/08 00:22:12;;;;;;;7.82;3.65;;;;;;;;;;5014895;28;20475;-69
2023/06/08 00:24:39;;;;;;;5.88;3.83;;;;;;;;;;5014945;28;20030;-69
2023/06/08 00:27:05;;;;;;;7.05;4.10;;;;;;;;;;5014487;28;20022;-69
2023/06/08 00:29:32;;;;;;;6.90;4.10;;;;;;;;;;5015316;28;20022;-69
2023/06/08 00:31:58;;;;;;;6.13;4.20;;;;;;;;;;5015152;28;20014;-69
2023/06/08 00:34:28;;;;;;;6.20;4.35;;;;;;;;;;5014854;28;20385;-68
2023/06/08 00:36:55;;;;;;;7.20;3.63;;;;;;;;;;5014663;28;20034;-69
2023/06/08 00:39:21;;;;;;;5.50;3.78;;;;;;;;;;5014668;28;20517;-69
2023/06/08 00:41:47;;;;;;;4.95;4.28;;;;;;;;;;5014276;28;20030;-69
2023/06/08 00:44:14;;;;;;;6.45;4.30;;;;;;;;;;5014937;28;20033;-69
2023/06/08 00:46:40;;;;;;;5.07;4.13;;;;;;;;;;5014729;28;20084;-69
2023/06/08 00:49:08;;;;;;;7.20;4.03;;;;;;;;;;5014465;28;20019;-69
2023/06/08 00:51:36;;;;;;;5.35;3.75;;;;;;;;;;5014784;28;20030;-69
2023/06/08 00:54:04;;;;;;;9.52;4.20;;;;;;;;;;5014316;28;20034;-69
2023/06/08 00:56:31;;;;;;;5.05;3.95;;;;;;;;;;5014368;28;20026;-69
2023/06/08 00:59:00;;;;;;;6.38;4.00;;;;;;;;;;5014312;28;20387;-69
2023/06/08 01:01:29;;;;;;;6.38;4.30;;;;;;;;;;5014034;28;20028;-69
2023/06/08 01:04:09;;;;;;;7.72;4.10;;;;;;;;;;5013542;28;20033;-69
2023/06/08 01:06:36;;;;;;;6.03;4.35;;;;;;;;;;5014229;28;20030;-70
2023/06/08 01:09:02;;;;;;;7.55;4.10;;;;;;;;;;5014280;28;20397;-69
2023/06/08 01:11:28;;;;;;;6.70;4.22;;;;;;;;;;5013861;28;20783;-69
2023/06/08 01:14:06;;;;;;;6.35;4.57;;;;;;;;;;5014528;28;20022;-69
2023/06/08 01:16:36;;;;;;;7.88;4.25;;;;;;;;;;5013912;28;20498;-69
2023/06/08 01:19:08;;;;;;;9.27;4.47;;;;;;;;;;5014184;28;20038;-69
2023/06/08 01:21:47;;;;;;;6.35;4.50;;;;;;;;;;5014200;28;20026;-69
2023/06/08 01:24:16;;;;;;;9.93;4.60;;;;;;;;;;5013640;28;20385;-69
2023/06/08 01:26:49;;;;;;;7.55;4.60;;;;;;;;;;5013846;28;20032;-69
2023/06/08 01:29:17;;;;;;;8.73;4.20;;;;;;;;;;5013922;28;20033;-69
2023/06/08 01:31:43;;;;;;;6.10;4.88;;;;;;;;;;5013875;28;20029;-69
2023/06/08 01:34:11;;;;;;;6.40;4.80;;;;;;;;;;5013725;28;20030;-69
2023/06/08 01:36:45;;;;;;;7.97;4.82;;;;;;;;;;5013461;28;20032;-69
2023/06/08 01:39:20;;;;;;;7.03;4.85;;;;;;;;;;5013324;28;20409;-69
2023/06/08 01:41:49;;;;;;;6.65;4.82;;;;;;;;;;5013700;28;20018;-69
2023/06/08 01:44:17;;;;;;;7.45;4.72;;;;;;;;;;5013734;28;20389;-69
2023/06/08 01:46:45;;;;;;;7.13;4.63;;;;;;;;;;5013571;28;20034;-69
2023/06/08 01:49:11;;;;;;;8.93;4.70;;;;;;;;;;5013284;28;20018;-70
2023/06/08 01:51:38;;;;;;;8.35;4.63;;;;;;;;;;5013629;28;20029;-69
2023/06/08 01:54:06;;;;;;;10.02;4.65;;;;;;;;;;5013252;28;20026;-69
2023/06/08 01:56:33;;;;;;;6.78;4.85;;;;;;;;;;5013638;28;20029;-69
2023/06/08 01:59:00;;;;;;;11.35;4.85;;;;;;;;;;5013216;28;20419;-69
2023/06/08 02:01:26;;;;;;;6.80;4.82;;;;;;;;;;5012954;28;20026;-69
2023/06/08 02:03:52;;;;;;;9.32;5.38;;;;;;;;;;5013139;28;20500;-69
2023/06/08 02:06:19;;;;;;;9.05;5.43;;;;;;;;;;5013092;28;20022;-68
2023/06/08 02:08:45;;;;;;;8.75;4.80;;;;;;;;;;5012975;28;20032;-69
2023/06/08 02:11:11;;;;;;;9.00;5.35;;;;;;;;;;5013267;28;20018;-69
2023/06/08 02:13:44;;;;;;;7.82;5.00;;;;;;;;;;5012848;28;20030;-69
2023/06/08 02:16:11;;;;;;;6.38;4.65;;;;;;;;;;5012931;28;20030;-69
2023/06/08 02:18:41;;;;;;;7.38;5.35;;;;;;;;;;5012883;28;20048;-69
2023/06/08 02:21:08;;;;;;;6.88;5.72;;;;;;;;;;5013069;28;20017;-71
2023/06/08 02:23:35;;;;;;;9.88;5.30;;;;;;;;;;5012538;28;20030;-71
2023/06/08 02:26:01;;;;;;;8.63;5.13;;;;;;;;;;5013037;28;20025;-71
2023/06/08 02:28:28;;;;;;;8.77;5.28;;;;;;;;;;5012810;28;20026;-71
2023/06/08 02:30:54;;;;;;;9.38;5.00;;;;;;;;;;5012793;28;20493;-71
2023/06/08 02:33:21;;;;;;;8.02;5.35;;;;;;;;;;5012738;28;20425;-71
2023/06/08 02:35:48;;;;;;;9.13;5.50;;;;;;;;;;5012758;28;20026;-71
2023/06/08 02:38:14;;;;;;;11.85;5.50;;;;;;;;;;5012662;28;20026;-71
2023/06/08 02:40:41;;;;;;;9.60;5.15;;;;;;;;;;5012964;28;20028;-71
2023/06/08 02:43:08;;;;;;;9.57;5.60;;;;;;;;;;5012548;28;20030;-71
2023/06/08 02:45:34;;;;;;;8.00;4.93;;;;;;;;;;5012865;28;20030;-71
2023/06/08 02:48:01;;;;;;;5.88;4.90;;;;;;;;;;5012673;28;20026;-70
2023/06/08 02:50:27;;;;;;;6.75;5.03;;;;;;;;;;5012752;28;20032;-71
2023/06/08 02:52:54;;;;;;;10.20;5.15;;;;;;;;;;5012204;28;20030;-71
2023/06/08 02:55:20;;;;;;;6.15;5.30;;;;;;;;;;5012223;28;20032;-71
2023/06/08 02:57:51;;;;;;;7.75;5.03;;;;;;;;;;5012573;28;20036;-71
2023/06/08 03:00:20;;;;;;;7.38;5.13;;;;;;;;;;5012435;28;20072;-71
2023/06/08 03:02:46;;;;;;;11.45;5.45;;;;;;;;;;5012789;28;20014;-71
2023/06/08 03:05:13;;;;;;;12.07;5.43;;;;;;;;;;5012345;28;20051;-71
2023/06/08 03:07:42;;;;;;;8.95;6.20;;;;;;;;;;5012044;28;20026;-71
2023/06/08 03:10:09;;;;;;;8.90;5.68;;;;;;;;;;5012370;28;20029;-71
2023/06/08 03:12:35;;;;;;;6.68;5.45;;;;;;;;;;5012017;28;20299;-71
2023/06/08 03:15:02;;;;;;;9.27;5.40;;;;;;;;;;5012226;28;20080;-71
2023/06/08 03:17:28;;;;;;;8.63;5.32;;;;;;;;;;4994893;28;20045;-71
2023/06/08 03:19:55;;;;;;;7.75;5.60;;;;;;;;;;5011822;28;20421;-71
2023/06/08 03:22:21;;;;;;;5.90;5.30;;;;;;;;;;5012039;28;20481;-71
2023/06/08 03:24:51;;;;;;;7.50;5.57;;;;;;;;;;5012086;28;20478;-71
2023/06/08 03:27:17;;;;;;;10.98;5.82;;;;;;;;;;5015691;28;20036;-71
2023/06/08 03:29:43;;;;;;;8.85;6.10;;;;;;;;;;5016170;28;20022;-71
2023/06/08 03:32:10;;;;;;;9.10;5.68;;;;;;;;;;5016391;28;20030;-71
2023/06/08 03:34:37;;;;;;;10.15;5.72;;;;;;;;;;5016014;28;20024;-70
2023/06/08 03:37:03;;;;;;;6.93;5.40;;;;;;;;;;5016221;28;20026;-71
2023/06/08 03:39:30;;;;;;;6.32;4.70;;;;;;;;;;4998461;28;20034;-71
2023/06/08 03:41:56;;;;;;;11.38;5.57;;;;;;;;;;5015929;28;20013;-71
2023/06/08 03:44:22;;;;;;;9.55;5.50;;;;;;;;;;5015797;28;20497;-71
2023/06/08 03:46:49;;;;;;;7.38;5.53;;;;;;;;;;5015780;28;20018;-71
2023/06/08 03:49:15;;;;;;;7.32;5.63;;;;;;;;;;5015513;28;20030;-71
2023/06/08 03:51:41;;;;;;;11.65;5.30;;;;;;;;;;5015987;28;20028;-71
2023/06/08 03:54:08;;;;;;;10.15;6.10;;;;;;;;;;5015976;28;20037;-71
2023/06/08 03:56:34;;;;;;;6.47;5.60;;;;;;;;;;5015721;28;20022;-71
2023/06/08 03:59:01;;;;;;;10.55;5.90;;;;;;;;;;5015511;28;20091;-71
2023/06/08 04:01:28;;;;;;;6.97;6.05;;;;;;;;;;5015838;28;20022;-71
2023/06/08 04:03:55;;;;;;;7.72;5.97;;;;;;;;;;5015448;28;20088;-71
2023/06/08 04:06:23;;;;;;;9.57;5.75;;;;;;;;;;5015731;28;20021;-71
2023/06/08 04:08:50;;;;;;;6.30;5.68;;;;;;;;;;5015499;28;20025;-71
2023/06/08 04:11:16;;;;;;;7.60;5.70;;;;;;;;;;5015248;28;20368;-71
2023/06/08 04:13:43;;;;;;;9.57;5.80;;;;;;;;;;5015588;28;20044;-71
2023/06/08 04:16:10;;;;;;;6.88;5.95;;;;;;;;;;5015221;28;20022;-71
2023/06/08 04:18:37;;;;;;;7.60;6.05;;;;;;;;;;5014823;28;20048;-71
2023/06/08 04:21:05;;;;;;;10.75;5.88;;;;;;;;;;5015122;28;20032;-71
2023/06/08 04:23:33;;;;;;;8.55;5.85;;;;;;;;;;5015199;28;20076;-71
2023/06/08 04:26:00;;;;;;;10.38;6.00;;;;;;;;;;5014914;28;20029;-71
2023/06/08 04:28:28;;;;;;;10.18;6.07;;;;;;;;;;5015491;28;20016;-71
2023/06/08 04:30:54;;;;;;;7.88;5.88;;;;;;;;;;5015500;28;20030;-71
2023/06/08 04:33:21;;;;;;;9.90;6.53;;;;;;;;;;5014558;28;20030;-71
2023/06/08 04:35:47;;;;;;;8.63;5.80;;;;;;;;;;5014792;28;20113;-71
2023/06/08 04:38:14;;;;;;;7.78;5.65;;;;;;;;;;5014903;28;20026;-71
2023/06/08 04:40:53;;;;;;;8.38;6.10;;;;;;;;;;5014734;28;20502;-71
2023/06/08 04:43:25;;;;;;;8.80;5.60;;;;;;;;;;5015023;28;20064;-71
2023/06/08 04:45:59;;;;;;;8.32;5.85;;;;;;;;;;5014952;28;20044;-71
2023/06/08 04:48:26;;;;;;;7.40;5.32;;;;;;;;;;5014245;28;20397;-71
2023/06/08 04:50:53;;;;;;;7.10;5.25;;;;;;;;;;5014567;28;20386;-71
2023/06/08 04:53:21;;;;;;;6.10;5.50;;;;;;;;;;5014673;28;20022;-71
2023/06/08 04:55:48;;;;;;;6.15;5.18;;;;;;;;;;5014520;28;20040;-71
2023/06/08 04:58:15;;;;;;;6.97;5.28;;;;;;;;;;5014518;28;20030;-71
2023/06/08 05:00:41;;;;;;;6.07;5.13;;;;;;;;;;5014377;28;20029;-71
2023/06/08 05:03:08;;;;;;;7.35;5.20;;;;;;;;;;5014275;28;20024;-71
2023/06/08 05:05:34;;;;;;;8.90;5.63;;;;;;;;;;5014665;28;20033;-71
2023/06/08 05:08:00;;;;;;;8.70;5.50;;;;;;;;;;5014697;28;20030;-71
2023/06/08 05:10:27;;;;;;;8.90;5.25;;;;;;;;;;5014470;28;20504;-71
2023/06/08 05:12:55;;;;;;;7.05;5.55;;;;;;;;;;5014749;28;20029;-71
2023/06/08 05:15:22;;;;;;;8.13;5.38;;;;;;;;;;5014317;28;20014;-71
2023/06/08 05:17:48;;;;;;;8.32;4.75;;;;;;;;;;5013686;28;20464;-71
2023/06/08 05:20:15;;;;;;;6.72;5.07;;;;;;;;;;5014197;28;20036;-71
2023/06/08 05:22:41;;;;;;;8.02;5.00;;;;;;;;;;5014238;28;20041;-71
2023/06/08 05:25:07;;;;;;;8.05;5.20;;;;;;;;;;5014234;28;20032;-71
2023/06/08 05:27:34;;;;;;;6.80;4.53;;;;;;;;;;5014024;28;20409;-71
2023/06/08 05:30:00;;;;;;;7.07;4.70;;;;;;;;;;5014212;28;20028;-71
2023/06/08 05:32:26;;;;;;;6.40;4.80;;;;;;;;;;5013691;28;20441;-71
2023/06/08 05:34:53;;;;;;;14.23;5.63;;;;;;;;;;5013999;28;20024;-71
2023/06/08 05:37:19;;;;;;;6.68;4.70;;;;;;;;;;5014027;28;20029;-71
2023/06/08 05:39:45;;;;;;;9.00;4.97;;;;;;;;;;5013955;28;20441;-71
2023/06/08 05:42:12;;;;;;;7.13;4.75;;;;;;;;;;5013925;28;20026;-71
2023/06/08 05:44:38;;;;;;;9.60;4.53;;;;;;;;;;5013811;28;20042;-71
2023/06/08 05:47:05;;;;;;;8.85;5.07;;;;;;;;;;5013259;28;20052;-71
2023/06/08 05:49:31;;;;;;;5.15;4.57;;;;;;;;;;5012667;28;20470;-71
2023/06/08 05:51:57;;;;;;;7.30;4.63;;;;;;;;;;5013820;28;20042;-71
2023/06/08 05:54:24;;;;;;;5.50;4.63;;;;;;;;;;5013514;28;20240;-71
2023/06/08 05:56:50;;;;;;;5.68;4.32;;;;;;;;;;5013474;28;20513;-71
2023/06/08 05:59:16;;;;;;;5.80;4.40;;;;;;;;;;5013314;28;20409;-71
2023/06/08 06:01:43;;;;;;;6.18;4.55;;;;;;;;;;4995264;28;20032;-71
2023/06/08 06:04:09;;;;;;;8.65;4.93;;;;;;;;;;5013180;28;20486;-71
2023/06/08 06:06:36;;;;;;;5.88;4.32;;;;;;;;;;5013042;28;20397;-71
2023/06/08 06:09:03;;;;;;;5.75;4.30;;;;;;;;;;5013432;28;20028;-71
2023/06/08 06:11:30;;;;;;;6.22;4.55;;;;;;;;;;5010658;28;20018;-71
2023/06/08 06:13:58;;;;;;;7.05;4.40;;;;;;;;;;5011313;28;20418;-72
2023/06/08 06:16:24;;;;;;;9.68;5.00;;;;;;;;;;5004099;28;20044;-72
2023/06/08 06:18:50;;;;;;;8.52;4.50;;;;;;;;;;4993175;28;20049;-72
2023/06/08 06:21:17;;;;;;;6.70;4.22;;;;;;;;;;5009190;28;20034;-69
2023/06/08 06:23:46;;;;;;;5.47;4.55;;;;;;;;;;5011956;28;20022;-72
2023/06/08 06:26:12;;;;;;;6.28;4.55;;;;;;;;;;5011614;28;20389;-72
2023/06/08 06:28:40;;;;;;;5.68;4.18;;;;;;;;;;5008812;28;20036;-72
2023/06/08 06:31:07;;;;;;;6.55;3.90;;;;;;;;;;4991789;28;20080;-72
2023/06/08 06:33:33;;;;;;;7.82;3.83;;;;;;;;;;4992368;28;20031;-72
2023/06/08 06:36:00;;;;;;;7.03;4.03;;;;;;;;;;4975570;28;20036;-72
2023/06/08 06:38:26;;;;;;;7.15;4.70;;;;;;;;;;4992505;28;20038;-72
2023/06/08 06:40:53;;;;;;;7.25;3.85;;;;;;;;;;4997654;28;20030;-72
2023/06/08 06:43:24;;;;;;;4.65;3.45;;;;;;;;;;5008063;28;20047;-72
2023/06/08 06:45:50;;;;;;;4.55;3.65;;;;;;;;;;4998301;28;20022;-72
2023/06/08 06:48:18;;;;;;;4.90;3.35;;;;;;;;;;5011163;28;20036;-73
2023/06/08 06:50:45;;;;;;;6.88;3.17;;;;;;;;;;5010544;28;20025;-72
2023/06/08 06:53:11;;;;;;;7.05;2.90;;;;;;;;;;5011557;28;20028;-70
2023/06/08 06:55:38;;;;;;;4.93;3.10;;;;;;;;;;5011614;28;20052;-69
2023/06/08 06:58:04;;;;;;;5.72;3.00;;;;;;;;;;5010981;28;20036;-69
2023/06/08 07:00:37;;;;;;;5.20;3.22;;;;;;;;;;5011285;28;20036;-71
2023/06/08 07:03:06;;;;;;;4.80;3.20;;;;;;;;;;5011577;28;20021;-69
2023/06/08 07:05:33;;;;;;;7.28;3.40;;;;;;;;;;5011383;28;20041;-69
2023/06/08 07:07:59;;;;;;;4.38;2.95;;;;;;;;;;5010635;28;20037;-70
2023/06/08 07:10:27;;;;;;;5.07;3.55;;;;;;;;;;5011110;28;20026;-69
2023/06/08 07:12:53;;;;;;;3.88;2.92;;;;;;;;;;4977025;28;20069;-69
2023/06/08 07:15:20;;;;;;;3.53;2.55;;;;;;;;;;4996154;28;20021;-69
2023/06/08 07:17:46;;;;;;;3.13;2.83;;;;;;;;;;5011462;28;20518;-69
2023/06/08 07:20:13;;;;;;;5.28;3.10;;;;;;;;;;5011228;28;20042;-71
2023/06/08 07:22:40;;;;;;;3.92;2.95;;;;;;;;;;5006567;28;20030;-71
2023/06/08 07:25:06;;;;;;;3.70;2.40;;;;;;;;;;5011078;28;20376;-72
2023/06/08 07:27:33;;;;;;;4.18;2.72;;;;;;;;;;5006545;28;20018;-70
2023/06/08 07:29:59;;;;;;;6.78;3.03;;;;;;;;;;4979335;28;20033;-69
2023/06/08 07:32:29;;;;;;;4.80;2.60;;;;;;;;;;5010607;28;20032;-69
2023/06/08 07:34:56;;;;;;;2.50;2.30;;;;;;;;;;5010675;28;20034;-70
2023/06/08 07:37:22;;;;;;;4.20;2.20;;;;;;;;;;5009742;28;20508;-70
2023/06/08 07:39:49;;;;;;;5.82;2.60;;;;;;;;;;5005674;28;20041;-70
2023/06/08 07:42:15;;;;;;;4.28;2.70;;;;;;;;;;4988740;28;20045;-70
2023/06/08 07:44:41;;;;;;;6.97;3.13;;;;;;;;;;4990868;28;20073;-69
2023/06/08 07:47:08;;;;;;;3.33;2.17;;;;;;;;;;4997813;28;20519;-69
2023/06/08 07:49:34;;;;;;;2.78;2.25;;;;;;;;;;5010769;28;20036;-69
2023/06/08 07:52:00;;;;;;;3.10;2.30;;;;;;;;;;5010694;28;20025;-69
2023/06/08 07:54:26;;;;;;;2.95;2.45;;;;;;;;;;5008321;28;20018;-69
2023/06/08 07:56:53;;;;;;;3.60;2.67;;;;;;;;;;5010770;28;20072;-69
2023/06/08 07:59:19;;;;;;;3.60;2.22;;;;;;;;;;5010640;28;20041;-68
2023/06/08 08:01:45;;;;;;;2.78;2.40;;;;;;;;;;5008624;28;20021;-69
2023/06/08 08:04:12;;;;;;;2.58;2.38;;;;;;;;;;5010038;28;20033;-69
2023/06/08 08:06:38;;;;;;;4.85;2.45;;;;;;;;;;4992324;28;20548;-69
2023/06/08 08:09:04;;;;;;;4.63;2.53;;;;;;;;;;5009787;28;20482;-70
2023/06/08 08:11:31;;;;;;;4.40;2.50;;;;;;;;;;5009582;28;20024;-70
2023/06/08 08:13:57;;;;;;;3.63;2.47;;;;;;;;;;5013329;28;20034;-70
2023/06/08 08:16:23;;;;;;;2.92;2.72;;;;;;;;;;5010102;28;20037;-70
2023/06/08 08:18:50;;;;;;;3.55;2.85;;;;;;;;;;5013453;28;20402;-70
2023/06/08 08:21:16;;;;;;;5.75;2.65;;;;;;;;;;5010826;28;20380;-70
2023/06/08 08:23:42;;;;;;;4.47;2.78;;;;;;;;;;5013427;28;20438;-72
2023/06/08 08:26:09;;;;;;;3.63;2.90;;;;;;;;;;5014134;28;20030;-72
2023/06/08 08:28:41;;;;;;;3.17;2.45;;;;;;;;;;5013823;28;20026;-72
2023/06/08 08:31:07;;;;;;;3.97;2.42;;;;;;;;;;5013658;28;20034;-72
2023/06/08 08:33:35;;;;;;;3.65;2.40;;;;;;;;;;5013284;28;20046;-72
2023/06/08 08:36:01;;;;;;;3.55;2.63;;;;;;;;;;5013304;28;20034;-72
2023/06/08 08:38:28;;;;;;;4.75;2.33;;;;;;;;;;5013272;28;20025;-72
2023/06/08 08:41:01;;;;;;;3.38;2.33;;;;;;;;;;5013050;28;20038;-70
2023/06/08 08:43:35;;;;;;;3.08;2.33;;;;;;;;;;5013254;28;20014;-71
2023/06/08 08:46:03;;;;;;;4.95;2.80;;;;;;;;;;5012919;28;20025;-70
2023/06/08 08:48:30;;;;;;;4.05;2.63;;;;;;;;;;4987936;28;20052;-70
2023/06/08 08:50:58;;;;;;;5.20;2.47;;;;;;;;;;5009923;28;20117;-69
2023/06/08 08:53:30;;;;;;;4.03;2.30;;;;;;;;;;5008928;28;20056;-70
2023/06/08 08:55:59;;;;;;;4.63;2.28;;;;;;;;;;5012096;28;20025;-70
2023/06/08 08:58:25;;;;;;;2.58;2.38;;;;;;;;;;5012722;28;20033;-70
2023/06/08 09:00:52;;;;;;;3.03;2.42;;;;;;;;;;5013164;28;20033;-70
2023/06/08 09:03:18;;;;;;;3.42;2.42;;;;;;;;;;5012497;28;20030;-69
2023/06/08 09:05:45;;;;;;;5.28;2.50;;;;;;;;;;5010441;28;20032;-70
2023/06/08 09:08:12;;;;;;;3.83;2.30;;;;;;;;;;5011154;28;20021;-70
2023/06/08 09:10:38;;;;;;;3.58;2.03;;;;;;;;;;5011687;28;20482;-70
2023/06/08 09:13:05;;;;;;;3.10;2.40;;;;;;;;;;5010060;28;20433;-70
2023/06/08 09:15:37;;;;;;;3.63;2.20;;;;;;;;;;5024213;28;20026;-70
2023/06/08 09:18:17;;;;;;;2.40;2.20;;;;;;;;;;5004595;28;20522;-70
2023/06/08 09:20:44;;;;;;;3.83;2.27;;;;;;;;;;5012513;28;20433;-70
2023/06/08 09:23:20;;;;;;;3.50;2.15;;;;;;;;;;5010405;28;20393;-70
2023/06/08 09:25:47;;;;;;;2.38;1.90;;;;;;;;;;5011271;28;20040;-70
2023/06/08 09:28:26;;;;;;;2.50;1.95;;;;;;;;;;5012057;28;20371;-70
2023/06/08 09:30:54;;;;;;;2.33;2.05;;;;;;;;;;5011901;28;20022;-71
2023/06/08 09:33:23;;;;;;;3.00;1.80;;;;;;;;;;4998389;28;20030;-70
2023/06/08 09:35:58;;;;;;;4.53;1.83;;;;;;;;;;5010881;28;20041;-71
2023/06/08 09:38:26;;;;;;;2.65;2.03;;;;;;;;;;5009806;28;20052;-70
2023/06/08 09:41:12;;;;;;;3.58;2.22;;;;;;;;;;5011369;28;20389;-71
2023/06/08 09:43:38;;;;;;;3.22;1.90;;;;;;;;;;5011069;28;20054;-70
2023/06/08 09:46:05;;;;;;;3.15;2.03;;;;;;;;;;5011887;28;20034;-70
2023/06/08 09:48:32;;;;;;;3.05;1.83;;;;;;;;;;4993101;28;20068;-70
2023/06/08 09:51:01;;;;;;;2.92;1.83;;;;;;;;;;5004734;28;20026;-71
2023/06/08 09:53:28;;;;;;;2.85;2.15;;;;;;;;;;5010850;28;20033;-70
2023/06/08 09:55:55;;;;;;;2.38;2.08;;;;;;;;;;5011472;28;20487;-70
2023/06/08 09:58:27;;;;;;;3.45;1.90;;;;;;;;;;5010578;28;21179;-70
2023/06/08 10:00:58;;;;;;;2.63;1.60;;;;;;;;;;5009903;28;20048;-70
2023/06/08 10:03:30;;;;;;;2.05;1.80;;;;;;;;;;5010765;28;20030;-70
2023/06/08 10:05:58;;;;;;;3.17;1.83;;;;;;;;;;5010854;28;20394;-70
2023/06/08 10:08:27;;;;;;;3.05;1.85;;;;;;;;;;5010761;28;20512;-71
2023/06/08 10:10:55;;;;;;;4.35;1.92;;;;;;;;;;5009633;28;20056;-70
2023/06/08 10:13:22;;;;;;;2.28;1.90;;;;;;;;;;5010591;28;20052;-70
2023/06/08 10:15:48;;;;;;;3.58;2.00;;;;;;;;;;5011520;28;20030;-70
2023/06/08 10:18:15;;;;;;;4.32;2.08;;;;;;;;;;5011417;28;20103;-70
2023/06/08 10:20:41;;;;;;;8.48;2.30;;;;;;;;;;5011132;28;20038;-70
2023/06/08 10:23:08;;;;;;;2.47;2.03;;;;;;;;;;5011457;28;20026;-71
2023/06/08 10:25:35;;;;;;;2.28;2.08;;;;;;;;;;5010713;28;20029;-70
2023/06/08 10:28:05;;;;;;;5.00;1.95;;;;;;;;;;5011328;28;20061;-70
2023/06/08 10:30:39;;;;;;;2.42;2.00;;;;;;;;;;5011604;28;20044;-71
2023/06/08 10:33:08;;;;;;;2.92;2.00;;;;;;;;;;5010486;28;20034;-70
2023/06/08 10:35:35;;;;;;;5.00;1.80;;;;;;;;;;5010289;28;20034;-71
2023/06/08 10:38:09;;;;;;;2.65;1.95;;;;;;;;;;5011566;28;20017;-70
2023/06/08 10:40:49;;;;;;;4.15;1.77;;;;;;;;;;5011515;28;20040;-71
2023/06/08 10:43:15;;;;;;;2.30;1.80;;;;;;;;;;5011120;28;20381;-70
2023/06/08 10:45:44;;;;;;;3.38;1.85;;;;;;;;;;5011217;28;20456;-71
2023/06/08 10:48:14;;;;;;;6.25;1.92;;;;;;;;;;5011128;28;20401;-71
2023/06/08 10:50:43;;;;;;;2.90;1.90;;;;;;;;;;5010884;28;20022;-71
2023/06/08 10:53:09;;;;;;;4.18;1.85;;;;;;;;;;5010178;28;20030;-71
2023/06/08 10:55:36;;;;;;;4.70;1.80;;;;;;;;;;5011587;28;20371;-71
2023/06/08 10:58:06;;;;;;;1.90;1.75;;;;;;;;;;5011067;28;20037;-71
2023/06/08 11:00:33;;;;;;;;;;;;;;;;;;5011468;28;20044;-70
2023/06/08 11:03:00;;;;;;;4.80;2.03;;;;;;;;;;5011270;28;19912;-70
2023/06/08 11:05:30;;;;;;;2.63;1.63;;;;;;;;;;5010537;28;20559;-70
2023/06/08 11:07:57;;;;;;;2.72;1.75;;;;;;;;;;5010354;28;20413;-70
2023/06/08 11:10:26;;;;;;;3.53;1.90;;;;;;;;;;5011113;28;20028;-70
2023/06/08 11:12:53;;;;;;;3.00;1.70;;;;;;;;;;5011040;28;20028;-70
2023/06/08 11:15:20;;;;;;;2.10;1.35;;;;;;;;;;5010946;28;20446;-70
2023/06/08 11:17:59;;;;;;;2.65;1.75;;;;;;;;;;5025985;28;20412;-71
2023/06/08 11:20:26;;;;;;;1.80;1.50;;;;;;;;;;5025554;28;20036;-70
2023/06/08 11:22:53;;;;;;;4.45;2.10;;;;;;;;;;4993485;28;20029;-70
2023/06/08 11:25:20;;;;;;;1.83;1.70;;;;;;;;;;4993502;28;20148;-70
2023/06/08 11:27:46;;;;;;;2.85;1.67;;;;;;;;;;5010814;28;20026;-71
2023/06/08 11:30:19;;;;;;;2.08;1.70;;;;;;;;;;5011040;28;20022;-70
2023/06/08 11:32:47;;;;;;;3.75;1.77;;;;;;;;;;5011046;28;20025;-70
2023/06/08 11:35:13;;;;;;;2.95;1.60;;;;;;;;;;5010355;28;20486;-70
2023/06/08 11:37:41;;;;;;;2.83;1.90;;;;;;;;;;5008089;28;20022;-70
2023/06/08 11:40:14;;;;;;;1.65;1.48;;;;;;;;;;5009721;28;20040;-70
2023/06/08 11:42:41;;;;;;;2.58;1.60;;;;;;;;;;4976304;28;20088;-70
2023/06/08 11:45:09;;;;;;;1.65;1.55;;;;;;;;;;5006020;28;20038;-70
2023/06/08 11:47:36;;;;;;;3.15;1.75;;;;;;;;;;4993110;28;20048;-70
2023/06/08 11:50:03;;;;;;;3.05;1.58;;;;;;;;;;4995610;28;20026;-71
2023/06/08 11:52:33;;;;;;;4.38;2.00;;;;;;;;;;4994981;28;20025;-70
2023/06/08 11:55:00;;;;;;;;;;;;;;;;;;5006315;28;20026;-71
2023/06/08 11:57:40;;;;;;;4.30;2.00;;;;;;;;;;5033100;28;19905;-70
2023/06/08 12:00:29;;;;;;;2.35;1.75;;;;;;;;;;5013953;28;20533;-70
2023/06/08 12:02:56;;;;;;;2.10;1.35;;;;;;;;;;5012721;28;20461;-70
2023/06/08 12:05:24;;;;;;;1.90;1.60;;;;;;;;;;5013282;28;20034;-71
2023/06/08 12:07:55;;;;;;;4.38;1.70;;;;;;;;;;5013201;28;20025;-70
2023/06/08 12:10:21;;;;;;;2.70;1.58;;;;;;;;;;5013165;28;20024;-71
2023/06/08 12:12:49;;;;;;;2.25;1.42;;;;;;;;;;5013805;28;20032;-70
2023/06/08 12:15:19;;;;;;;2.67;1.58;;;;;;;;;;4996139;28;20029;-70
2023/06/08 12:17:46;;;;;;;2.65;1.52;;;;;;;;;;4980187;28;20050;-69
2023/06/08 12:20:16;;;;;;;2.70;1.70;;;;;;;;;;4999555;28;20401;-70
2023/06/08 12:22:42;;;;;;;2.97;1.70;;;;;;;;;;5013826;28;20022;-69
2023/06/08 12:25:08;;;;;;;3.53;1.50;;;;;;;;;;5013568;28;20022;-69
2023/06/08 12:27:37;;;;;;;2.25;1.52;;;;;;;;;;5013310;28;20496;-70
2023/06/08 12:30:07;;;;;;;3.00;1.83;;;;;;;;;;5013432;28;20049;-69
2023/06/08 12:32:33;;;;;;;;;;;;;;;;;;5013504;28;20036;-69
2023/06/08 12:35:00;;;;;;;3.45;1.52;;;;;;;;;;5013698;28;19905;-69
2023/06/08 12:37:29;;;;;;;3.00;1.73;;;;;;;;;;5013039;28;20026;-70
2023/06/08 12:39:56;;;;;;;3.33;1.67;;;;;;;;;;5012987;28;20508;-69
2023/06/08 12:42:22;;;;;;;2.97;1.63;;;;;;;;;;5013038;28;20535;-70
2023/06/08 12:44:48;;;;;;;2.33;1.70;;;;;;;;;;5013846;28;20036;-70
2023/06/08 12:47:14;;;;;;;2.42;1.70;;;;;;;;;;5011824;28;20029;-69
2023/06/08 12:49:44;;;;;;;3.40;1.73;;;;;;;;;;5013347;28;20394;-69
2023/06/08 12:52:10;;;;;;;4.40;1.63;;;;;;;;;;5013508;28;20028;-70
2023/06/08 12:54:36;;;;;;;2.80;1.42;;;;;;;;;;5012729;28;20033;-70
2023/06/08 12:57:03;;;;;;;8.15;1.80;;;;;;;;;;5013148;28;20030;-70
2023/06/08 12:59:29;;;;;;;3.92;1.80;;;;;;;;;;5012585;28;20038;-70
2023/06/08 13:01:56;;;;;;;3.70;1.90;;;;;;;;;;5012765;28;20026;-69
2023/06/08 13:04:23;;;;;;;2.88;1.60;;;;;;;;;;5012538;28;20040;-70
2023/06/08 13:06:50;;;;;;;3.33;2.03;;;;;;;;;;5012225;28;20036;-70
2023/06/08 13:09:16;;;;;;;2.60;1.90;;;;;;;;;;5012857;28;20393;-69
2023/06/08 13:11:42;;;;;;;3.72;1.83;;;;;;;;;;5013182;28;20029;-69
2023/06/08 13:14:09;;;;;;;4.28;2.38;;;;;;;;;;5010374;28;20520;-69
2023/06/08 13:16:35;;;;;;;3.92;2.15;;;;;;;;;;5011541;28;20038;-69
2023/06/08 13:19:01;;;;;;;4.57;1.95;;;;;;;;;;5012478;28;20030;-69
2023/06/08 13:21:31;;;;;;;4.50;1.92;;;;;;;;;;5012789;28;20032;-69
2023/06/08 13:24:01;;;;;;;2.92;1.83;;;;;;;;;;5012696;28;20049;-70
2023/06/08 13:26:27;;;;;;;5.40;1.97;;;;;;;;;;5012268;28;20026;-69
2023/06/08 13:28:54;;;;;;;3.30;1.77;;;;;;;;;;5006998;28;20203;-69
2023/06/08 13:31:20;;;;;;;3.58;1.80;;;;;;;;;;4992735;28;20056;-69
2023/06/08 13:33:47;;;;;;;2.35;1.83;;;;;;;;;;4992913;28;20019;-69
2023/06/08 13:36:13;;;;;;;3.47;1.85;;;;;;;;;;4993150;28;20030;-69
2023/06/08 13:38:39;;;;;;;2.88;1.80;;;;;;;;;;4993019;28;20562;-69
2023/06/08 13:41:07;;;;;;;3.50;2.10;;;;;;;;;;5010181;28;20080;-69
2023/06/08 13:43:33;;;;;;;2.80;1.63;;;;;;;;;;4992803;28;20018;-70
2023/06/08 13:46:02;;;;;;;5.10;2.15;;;;;;;;;;5006238;28;20498;-69
2023/06/08 13:48:28;;;;;;;3.20;1.85;;;;;;;;;;5012069;28;20034;-70
2023/06/08 13:50:55;;;;;;;4.57;2.30;;;;;;;;;;5012236;28;20136;-69
2023/06/08 13:53:21;;;;;;;4.95;2.33;;;;;;;;;;5011410;28;20056;-69
2023/06/08 13:55:48;;;;;;;5.22;2.30;;;;;;;;;;5011611;28;20014;-69
2023/06/08 13:58:14;;;;;;;6.03;2.00;;;;;;;;;;5011977;28;20037;-69
2023/06/08 14:00:41;;;;;;;6.00;2.00;;;;;;;;;;5011020;28;20037;-70
2023/06/08 14:03:07;;;;;;;4.95;1.80;;;;;;;;;;5011645;28;20018;-70
2023/06/08 14:05:33;;;;;;;2.35;1.70;;;;;;;;;;5011585;28;20056;-70
2023/06/08 14:08:00;;;;;;;5.07;1.83;;;;;;;;;;5011743;28;20619;-69
2023/06/08 14:10:26;;;;;;;3.63;2.00;;;;;;;;;;5011069;28;20448;-70
2023/06/08 14:12:52;;;;;;;5.22;2.17;;;;;;;;;;5011098;28;20026;-69
2023/06/08 14:15:19;;;;;;;4.82;2.65;;;;;;;;;;5011111;28;20041;-69
2023/06/08 14:17:45;;;;;;;3.53;1.90;;;;;;;;;;4995966;28;20052;-69
2023/06/08 14:20:12;;;;;;;4.07;2.10;;;;;;;;;;5005803;28;20045;-69
2023/06/08 14:22:38;;;;;;;8.98;2.25;;;;;;;;;;5011411;28;20033;-69
2023/06/08 14:25:05;;;;;;;6.55;2.30;;;;;;;;;;5011223;28;20147;-69
2023/06/08 14:27:31;;;;;;;4.97;2.33;;;;;;;;;;5022559;28;20018;-69
2023/06/08 14:29:57;;;;;;;5.93;2.33;;;;;;;;;;5030766;28;20033;-69
2023/06/08 14:32:24;;;;;;;8.00;2.05;;;;;;;;;;5018838;28;20030;-69
2023/06/08 14:34:50;;;;;;;3.38;1.90;;;;;;;;;;5011062;28;20030;-69
2023/06/08 14:37:16;;;;;;;4.93;2.15;;;;;;;;;;5011083;28;20026;-69
2023/06/08 14:39:43;;;;;;;4.38;1.92;;;;;;;;;;5010623;28;20045;-69
2023/06/08 14:42:09;;;;;;;10.10;2.38;;;;;;;;;;5010667;28;20025;-69
2023/06/08 14:44:36;;;;;;;4.72;2.15;;;;;;;;;;5010852;28;20037;-68